createdAt,value
2023-02-14T04:41:17.734Z,102137.53
2023-02-14T04:44:21.270Z,102137.53
2023-02-14T04:47:23.864Z,102137.47
2023-02-14T04:50:27.129Z,102132.28
2023-02-14T04:53:29.936Z,102139.50
2023-02-14T04:56:33.233Z,102124.09
2023-02-14T04:59:35.850Z,102128.66
2023-02-14T05:02:39.067Z,102125.97
2023-02-14T05:05:41.748Z,102123.06
2023-02-14T05:08:45.245Z,102121.97
2023-02-14T05:11:48.340Z,102127.81
2023-02-14T05:14:51.410Z,102130.16
2023-02-14T05:17:54.146Z,102127.47
2023-02-14T05:20:57.539Z,102132.75
2023-02-14T05:24:01.210Z,102133.72
2023-02-14T05:27:04.256Z,102128.50
2023-02-14T05:30:07.798Z,102134.47
2023-02-14T05:33:11.053Z,102137.88
2023-02-14T05:36:13.742Z,102137.16
2023-02-14T05:39:16.810Z,102131.03
2023-02-14T05:42:19.524Z,102131.00
2023-02-14T05:45:23.119Z,102127.53
2023-02-14T05:48:25.870Z,102132.69
2023-02-14T05:51:29.232Z,102131.00
2023-02-14T05:54:32.163Z,102136.13
2023-02-14T05:57:35.598Z,102146.25
2023-02-14T06:00:40.721Z,102144.41
2023-02-14T06:03:46.078Z,102140.88
2023-02-14T06:06:48.706Z,102141.72
2023-02-14T06:09:51.579Z,102149.59
2023-02-14T06:12:54.656Z,102154.81
2023-02-14T06:15:57.670Z,102155.06
2023-02-14T06:19:00.396Z,102151.84
2023-02-14T06:22:03.819Z,102156.31
2023-02-14T06:25:06.560Z,102156.53
2023-02-14T06:28:09.411Z,102166.09
2023-02-14T06:31:17.603Z,102173.09
2023-02-14T06:34:20.622Z,102179.31
2023-02-14T06:37:23.471Z,102180.44
2023-02-14T06:40:26.316Z,102187.66
2023-02-14T06:43:28.848Z,102199.13
2023-02-14T06:46:31.961Z,102206.31
2023-02-14T06:49:34.937Z,102201.38
2023-02-14T06:52:38.491Z,102205.94
2023-02-14T06:55:42.955Z,102206.22
2023-02-14T06:58:46.871Z,102208.22
2023-02-14T07:01:49.713Z,102203.25
2023-02-14T07:04:52.529Z,102203.37
2023-02-14T07:07:55.229Z,102213.13
2023-02-14T07:10:58.744Z,102213.31
2023-02-14T07:14:01.788Z,102209.16
2023-02-14T07:17:04.781Z,102217.97
2023-02-14T07:20:09.427Z,102216.41
2023-02-14T07:23:12.427Z,102212.19
2023-02-14T07:26:21.148Z,102220.19
2023-02-14T07:29:24.739Z,102222.91
2023-02-14T07:32:27.790Z,102215.19
2023-02-14T07:35:30.911Z,102225.75
2023-02-14T07:38:34.374Z,102225.81
2023-02-14T07:41:39.442Z,102229.38
2023-02-14T07:44:46.560Z,102221.62
2023-02-14T07:47:51.898Z,102226.91
2023-02-14T07:50:58.120Z,102230.47
2023-02-14T07:54:01.433Z,102235.84
2023-02-14T07:57:04.857Z,102238.50
2023-02-14T08:00:08.716Z,102232.41
2023-02-14T08:03:15.388Z,102241.13
2023-02-14T08:06:19.817Z,102238.50
2023-02-14T08:09:25.541Z,102239.41
2023-02-14T08:12:47.097Z,102240.28
2023-02-14T08:16:05.722Z,102237.66
2023-02-14T08:19:08.947Z,102235.84
2023-02-14T08:22:11.640Z,102225.28
2023-02-14T08:25:14.531Z,102231.44
2023-02-14T08:28:18.396Z,102237.63
2023-02-14T08:31:35.226Z,102241.13
2023-02-14T08:34:38.907Z,102239.41
2023-02-14T08:37:41.683Z,102242.00
2023-02-14T08:40:44.277Z,102238.53
2023-02-14T08:43:47.222Z,102240.25
2023-02-14T08:46:50.260Z,102238.50
2023-02-14T08:49:53.248Z,102240.19
2023-02-14T08:52:56.984Z,102242.81
2023-02-14T08:56:20.225Z,102238.41
2023-02-14T08:59:23.016Z,102237.44
2023-02-14T09:02:25.925Z,102245.06
2023-02-14T09:05:28.668Z,102239.59
2023-02-14T09:08:31.782Z,102242.28
2023-02-14T09:11:34.902Z,102239.75
2023-02-14T09:14:44.114Z,102231.91
2023-02-14T09:17:47.692Z,102235.47
2023-02-14T09:20:51.503Z,102231.97
2023-02-14T09:23:55.001Z,102240.75
2023-02-14T09:26:58.409Z,102239.91
2023-02-14T09:30:01.507Z,102236.34
2023-02-14T09:33:05.437Z,102242.34
2023-02-14T09:36:11.434Z,102244.84
2023-02-14T09:39:16.483Z,102240.31
2023-02-14T09:42:41.575Z,102243.78
2023-02-14T09:45:54.828Z,102254.34
2023-02-14T09:48:58.440Z,102252.50
2023-02-14T09:52:03.797Z,102247.16
2023-02-14T09:55:15.620Z,102241.88
2023-02-14T09:58:36.112Z,102253.25
2023-02-14T10:01:46.106Z,102245.47
2023-02-14T10:05:00.794Z,102250.97
2023-02-14T10:08:37.997Z,102242.12
2023-02-14T10:11:45.791Z,102246.34
2023-02-14T10:14:50.243Z,102246.22
2023-02-14T10:18:02.820Z,102245.22
2023-02-14T10:21:08.034Z,102239.03
2023-02-14T10:24:37.128Z,102236.41
2023-02-14T10:27:45.144Z,102239.94
2023-02-14T10:31:14.179Z,102227.69
2023-02-14T10:34:35.607Z,102228.50
2023-02-14T10:37:48.269Z,102231.91
2023-02-14T10:41:21.830Z,102227.50
2023-02-14T10:44:34.302Z,102217.00
2023-02-14T10:47:58.841Z,102217.09
2023-02-14T10:51:11.281Z,102215.09
2023-02-14T10:54:23.028Z,102212.41
2023-02-14T10:57:34.444Z,102210.63
2023-02-14T11:00:51.032Z,102202.56
2023-02-14T11:04:04.336Z,102197.41
2023-02-14T11:07:19.866Z,102199.31
2023-02-14T11:10:27.095Z,102199.37
2023-02-14T11:13:38.694Z,102191.56
2023-02-14T11:16:42.193Z,102199.53
2023-02-14T11:19:58.013Z,102203.13
2023-02-14T11:23:00.925Z,102203.13
2023-02-14T11:26:08.901Z,102196.69
2023-02-14T11:29:16.354Z,102197.59
2023-02-14T11:32:25.281Z,102189.47
2023-02-14T11:35:34.639Z,102197.31
2023-02-14T11:38:40.056Z,102191.91
2023-02-14T11:41:52.364Z,102194.28
2023-02-14T11:44:58.581Z,102188.84
2023-02-14T11:48:39.474Z,102194.06
2023-02-14T11:51:45.463Z,102185.34
2023-02-14T11:54:51.860Z,102176.66
2023-02-14T11:57:55.803Z,102174.78
2023-02-14T12:01:00.355Z,102185.16
2023-02-14T12:04:15.326Z,102193.16
2023-02-14T12:07:21.697Z,102180.66
2023-02-14T12:10:35.379Z,102175.13
2023-02-14T12:13:38.395Z,102182.97
2023-02-14T12:16:51.327Z,102177.78
2023-02-14T12:20:03.525Z,102176.78
2023-02-14T12:23:23.571Z,102167.41
2023-02-14T12:26:35.174Z,102165.44
2023-02-14T12:29:56.347Z,102169.97
2023-02-14T12:33:00.313Z,102162.34
2023-02-14T12:36:10.357Z,102159.37
2023-02-14T12:39:36.505Z,102154.72
2023-02-14T12:43:18.390Z,102142.03
2023-02-14T12:46:45.226Z,102145.16
2023-02-14T12:50:03.430Z,102138.41
2023-02-14T12:53:15.413Z,102133.03
2023-02-14T12:56:24.670Z,102138.59
2023-02-14T12:59:46.193Z,102129.28
2023-02-14T13:02:49.445Z,102130.50
2023-02-14T13:06:04.264Z,102132.28
2023-02-14T13:09:38.187Z,102126.34
2023-02-14T13:13:00.428Z,102134.53
2023-02-14T13:16:21.347Z,102126.28
2023-02-14T13:19:45.323Z,102125.78
2023-02-14T13:22:49.262Z,102120.25
2023-02-14T13:26:07.595Z,102118.47
2023-02-14T13:29:16.535Z,102116.59
2023-02-14T13:32:25.890Z,102126.28
2023-02-14T13:35:31.283Z,102115.28
2023-02-14T13:38:40.749Z,102120.84
2023-02-14T13:41:44.416Z,102114.75
2023-02-14T13:44:50.065Z,102112.59
2023-02-14T13:48:09.074Z,102116.56
2023-02-14T13:51:11.769Z,102106.78
2023-02-14T13:54:45.170Z,102105.59
2023-02-14T13:58:02.748Z,102100.97
2023-02-14T14:01:27.248Z,102105.56
2023-02-14T14:04:31.901Z,102101.22
2023-02-14T14:07:34.717Z,102103.50
2023-02-14T14:10:47.190Z,102091.78
2023-02-14T14:13:58.027Z,102103.41
2023-02-14T14:17:01.269Z,102105.84
2023-02-14T14:20:27.750Z,102104.87
2023-02-14T14:23:35.149Z,102110.63
2023-02-14T14:26:49.247Z,102104.91
2023-02-14T14:30:07.384Z,102101.88
2023-02-14T14:33:17.468Z,102097.91
2023-02-14T14:36:23.868Z,102094.00
2023-02-14T14:39:32.366Z,102095.91
2023-02-14T14:42:40.728Z,102093.81
2023-02-14T14:45:46.559Z,102094.91
2023-02-14T14:48:54.474Z,102088.97
2023-02-14T14:51:57.577Z,102078.84
2023-02-14T14:55:02.394Z,102083.34
2023-02-14T14:58:10.819Z,102070.94
2023-02-14T15:01:47.391Z,102078.38
2023-02-14T15:04:50.234Z,102078.56
2023-02-14T15:07:53.404Z,102077.31
2023-02-14T15:11:41.069Z,102078.19
2023-02-14T15:14:51.336Z,102087.47
2023-02-14T15:17:56.045Z,102084.09
2023-02-14T15:20:59.816Z,102078.09
2023-02-14T15:24:03.254Z,102084.53
2023-02-14T15:27:16.996Z,102084.09
2023-02-14T15:30:26.055Z,102077.66
2023-02-14T15:33:31.681Z,102083.06
2023-02-14T15:36:35.417Z,102082.13
2023-02-14T15:39:49.239Z,102084.34
2023-02-14T15:42:59.077Z,102078.41
2023-02-14T15:46:28.226Z,102073.19
2023-02-14T15:49:37.537Z,102078.47
2023-02-14T15:52:41.413Z,102091.50
2023-02-14T15:55:44.604Z,102083.19
2023-02-14T15:58:49.632Z,102087.19
2023-02-14T16:02:00.130Z,102088.34
2023-02-14T16:05:24.885Z,102092.13
2023-02-14T16:08:30.336Z,102102.84
2023-02-14T16:11:38.255Z,102109.97
2023-02-14T16:14:45.733Z,102106.59
2023-02-14T16:17:49.351Z,102108.41
2023-02-14T16:20:51.991Z,102105.88
2023-02-14T16:24:08.122Z,102112.00
2023-02-14T16:27:13.328Z,102119.88
2023-02-14T16:30:20.080Z,102116.44
2023-02-14T16:33:28.865Z,102120.78
2023-02-14T16:36:34.092Z,102119.06
2023-02-14T16:39:39.380Z,102127.81
2023-02-14T16:42:43.523Z,102128.66
2023-02-14T16:45:46.699Z,102121.69
2023-02-14T16:48:52.476Z,102128.66
